Time;durP1;ratioP1;P1;durP2;ratioP2;P2;SDS_P1;SDS_P2;PMS_P1;PMS_P2;Temp;Humidity;BMP_temperature;BMP_pressure;BME280_temperature;BME280_humidity;BME280_pressure;Samples;Min_cycle;Max_cycle;Signal;HPM_P1;HPM_P2
2021/09/21 00:02:11;;;;;;;7.90;5.55;;;;;;;;;;5060013;28;20032;-70
2021/09/21 00:04:38;;;;;;;9.07;5.28;;;;;;;;;;5044085;28;20044;-70
2021/09/21 00:07:04;;;;;;;10.18;6.13;;;;;;;;;;5043493;28;20044;-70
2021/09/21 00:09:30;;;;;;;7.45;5.90;;;;;;;;;;5043717;28;20106;-70
2021/09/21 00:11:56;;;;;;;8.43;6.30;;;;;;;;;;5043444;28;20044;-70
2021/09/21 00:14:22;;;;;;;8.05;6.05;;;;;;;;;;5038637;28;20100;-70
2021/09/21 00:16:48;;;;;;;8.70;6.05;;;;;;;;;;5040738;28;20041;-70
2021/09/21 00:19:15;;;;;;;10.57;6.30;;;;;;;;;;5057100;28;20393;-70
2021/09/21 00:21:41;;;;;;;7.80;5.97;;;;;;;;;;5053976;28;20037;-70
2021/09/21 00:24:07;;;;;;;8.80;6.80;;;;;;;;;;5053783;28;20407;-71
2021/09/21 00:26:33;;;;;;;10.43;6.88;;;;;;;;;;5056016;28;20049;-70
2021/09/21 00:29:00;;;;;;;11.93;7.03;;;;;;;;;;5018483;28;21957;-70
2021/09/21 00:31:36;;;;;;;9.00;7.25;;;;;;;;;;5058456;28;20186;-70
2021/09/21 00:34:11;;;;;;;9.93;7.32;;;;;;;;;;5034092;28;20055;-70
2021/09/21 00:36:38;;;;;;;11.23;7.82;;;;;;;;;;5039215;28;20124;-71
2021/09/21 00:39:06;;;;;;;11.68;7.38;;;;;;;;;;5055820;28;20182;-70
2021/09/21 00:41:33;;;;;;;10.20;7.45;;;;;;;;;;5035270;28;20182;-71
2021/09/21 00:43:59;;;;;;;12.95;7.88;;;;;;;;;;5040814;28;20072;-71
2021/09/21 00:46:25;;;;;;;10.85;7.05;;;;;;;;;;5037086;28;20084;-71
2021/09/21 00:48:51;;;;;;;9.85;8.05;;;;;;;;;;5038978;28;20377;-70
2021/09/21 00:51:17;;;;;;;9.88;8.07;;;;;;;;;;5035884;28;20083;-70
2021/09/21 00:53:44;;;;;;;12.90;8.32;;;;;;;;;;5059567;28;20098;-70
2021/09/21 00:56:10;;;;;;;11.32;8.13;;;;;;;;;;5040713;28;20078;-71
2021/09/21 00:58:36;;;;;;;12.73;8.32;;;;;;;;;;5056218;28;20095;-70
2021/09/21 01:01:02;;;;;;;12.07;8.57;;;;;;;;;;5036823;28;20041;-70
2021/09/21 01:03:28;;;;;;;14.32;9.73;;;;;;;;;;5034346;28;20051;-71
2021/09/21 01:05:54;;;;;;;12.88;9.45;;;;;;;;;;5041030;28;20589;-71
2021/09/21 01:08:26;;;;;;;13.88;9.25;;;;;;;;;;5040396;28;20510;-70
2021/09/21 01:10:52;;;;;;;10.43;9.00;;;;;;;;;;5054113;28;20159;-71
2021/09/21 01:13:19;;;;;;;14.73;9.27;;;;;;;;;;5055203;28;20048;-71
2021/09/21 01:15:45;;;;;;;12.48;9.40;;;;;;;;;;5052063;28;20093;-71
2021/09/21 01:18:11;;;;;;;10.98;9.32;;;;;;;;;;5039904;28;20040;-71
2021/09/21 01:20:37;;;;;;;14.35;10.48;;;;;;;;;;5042602;28;20040;-71
2021/09/21 01:23:04;;;;;;;13.05;10.10;;;;;;;;;;5034715;28;20127;-70
2021/09/21 01:25:30;;;;;;;12.88;10.75;;;;;;;;;;5041863;28;20044;-71
2021/09/21 01:27:57;;;;;;;12.35;10.20;;;;;;;;;;5040319;28;20136;-71
2021/09/21 01:30:23;;;;;;;13.93;10.77;;;;;;;;;;5038369;28;20045;-70
2021/09/21 01:32:49;;;;;;;12.20;9.65;;;;;;;;;;5057634;28;20040;-70
2021/09/21 01:35:15;;;;;;;13.63;10.32;;;;;;;;;;5041368;28;20045;-70
2021/09/21 01:37:43;;;;;;;13.88;10.25;;;;;;;;;;5041326;28;20077;-70
2021/09/21 01:40:09;;;;;;;13.35;10.25;;;;;;;;;;5058861;28;20094;-70
2021/09/21 01:42:40;;;;;;;15.07;10.70;;;;;;;;;;5040039;28;20055;-70
2021/09/21 01:45:07;;;;;;;12.73;9.95;;;;;;;;;;5058868;28;20126;-70
2021/09/21 01:47:33;;;;;;;14.75;9.43;;;;;;;;;;5037847;28;20052;-70
2021/09/21 01:50:20;;;;;;;14.68;10.60;;;;;;;;;;5047427;28;20044;-71
2021/09/21 01:52:53;;;;;;;13.40;10.55;;;;;;;;;;5041524;28;20067;-70
2021/09/21 02:00:44;;;;;;;12.95;10.43;;;;;;;;;;5060974;28;20399;-71
2021/09/21 02:03:10;;;;;;;12.43;9.95;;;;;;;;;;5039578;28;20040;-70
2021/09/21 02:05:36;;;;;;;18.40;10.27;;;;;;;;;;5055429;28;20052;-71
2021/09/21 02:08:02;;;;;;;12.23;9.43;;;;;;;;;;5050346;28;20072;-70
2021/09/21 02:10:29;;;;;;;15.65;10.07;;;;;;;;;;5043964;28;20139;-70
2021/09/21 02:12:55;;;;;;;14.75;10.27;;;;;;;;;;5040851;28;20047;-71
2021/09/21 02:15:22;;;;;;;17.92;10.18;;;;;;;;;;5054876;28;20063;-70
2021/09/21 02:17:48;;;;;;;13.35;9.98;;;;;;;;;;5040515;28;20051;-70
2021/09/21 02:20:15;;;;;;;16.45;9.95;;;;;;;;;;5042013;28;20056;-71
2021/09/21 02:22:41;;;;;;;13.82;10.60;;;;;;;;;;5059233;28;20041;-70
2021/09/21 02:25:07;;;;;;;14.75;10.25;;;;;;;;;;5041358;28;20579;-70
2021/09/21 02:27:34;;;;;;;14.05;10.25;;;;;;;;;;5037348;28;20068;-70
2021/09/21 02:30:00;;;;;;;13.43;9.73;;;;;;;;;;5055290;28;20121;-71
2021/09/21 02:32:26;;;;;;;11.18;9.23;;;;;;;;;;5059221;28;20040;-70
2021/09/21 02:34:53;;;;;;;14.82;10.50;;;;;;;;;;5055188;28;20052;-70
2021/09/21 02:37:19;;;;;;;12.82;10.27;;;;;;;;;;5040595;28;20056;-71
2021/09/21 02:39:46;;;;;;;10.95;8.98;;;;;;;;;;5022602;28;20361;-70
2021/09/21 02:42:12;;;;;;;11.70;9.55;;;;;;;;;;5043901;28;20051;-70
2021/09/21 02:44:38;;;;;;;13.73;10.27;;;;;;;;;;5037486;28;20051;-70
2021/09/21 02:47:05;;;;;;;12.60;10.18;;;;;;;;;;5056755;28;20059;-70
2021/09/21 02:49:32;;;;;;;14.13;11.32;;;;;;;;;;5059474;28;20129;-71
2021/09/21 02:51:58;;;;;;;13.80;10.98;;;;;;;;;;5040009;28;20468;-71
2021/09/21 02:54:24;;;;;;;15.45;11.32;;;;;;;;;;5038315;28;20037;-70
2021/09/21 02:56:51;;;;;;;13.05;10.18;;;;;;;;;;5044503;28;20049;-70
2021/09/21 02:59:17;;;;;;;14.50;10.77;;;;;;;;;;5057968;28;20041;-70
2021/09/21 03:01:43;;;;;;;12.30;10.05;;;;;;;;;;5039411;28;20855;-71
2021/09/21 03:04:23;;;;;;;12.70;10.43;;;;;;;;;;5025716;28;20040;-70
2021/09/21 03:06:52;;;;;;;15.77;11.13;;;;;;;;;;5043826;28;20076;-70
2021/09/21 03:09:48;;;;;;;14.20;10.88;;;;;;;;;;5036901;28;20437;-70
2021/09/21 03:12:45;;;;;;;11.23;9.80;;;;;;;;;;5057015;28;21246;-70
2021/09/21 03:17:56;;;;;;;15.23;11.23;;;;;;;;;;5041903;28;20149;-71
2021/09/21 03:20:22;;;;;;;17.92;10.98;;;;;;;;;;5042205;28;20131;-70
2021/09/21 03:22:48;;;;;;;14.10;10.68;;;;;;;;;;5049795;28;20056;-71
2021/09/21 03:25:15;;;;;;;14.40;10.40;;;;;;;;;;5021594;28;21479;-70
2021/09/21 03:27:41;;;;;;;16.55;10.65;;;;;;;;;;5038004;28;20456;-70
2021/09/21 03:30:08;;;;;;;13.48;10.60;;;;;;;;;;5044913;28;20060;-70
2021/09/21 03:32:34;;;;;;;15.27;10.73;;;;;;;;;;5042403;28;20064;-71
2021/09/21 03:35:02;;;;;;;14.68;10.05;;;;;;;;;;5044297;28;20041;-70
2021/09/21 03:37:28;;;;;;;13.70;10.32;;;;;;;;;;5045351;28;20124;-70
2021/09/21 03:39:54;;;;;;;15.10;10.85;;;;;;;;;;5036961;28;20088;-70
2021/09/21 03:42:20;;;;;;;13.73;8.90;;;;;;;;;;5043007;28;20045;-70
2021/09/21 03:44:47;;;;;;;13.07;9.68;;;;;;;;;;5057227;28;20049;-70
2021/09/21 03:47:13;;;;;;;13.95;10.30;;;;;;;;;;5041265;28;20052;-70
2021/09/21 03:49:39;;;;;;;14.00;10.10;;;;;;;;;;5041042;28;20048;-70
2021/09/21 03:52:05;;;;;;;13.52;9.82;;;;;;;;;;5040313;28;20055;-70
2021/09/21 03:54:31;;;;;;;11.70;10.20;;;;;;;;;;5024232;28;20076;-70
2021/09/21 03:56:57;;;;;;;19.92;10.63;;;;;;;;;;5044951;28;20533;-70
2021/09/21 03:59:25;;;;;;;15.05;10.45;;;;;;;;;;5023937;28;20055;-70
2021/09/21 04:01:51;;;;;;;15.25;10.13;;;;;;;;;;5041026;28;20045;-70
2021/09/21 04:04:18;;;;;;;13.23;10.63;;;;;;;;;;5057848;28;20060;-70
2021/09/21 04:06:46;;;;;;;15.50;10.70;;;;;;;;;;5059155;28;20045;-70
2021/09/21 04:09:12;;;;;;;16.42;10.93;;;;;;;;;;5044394;28;20068;-70
2021/09/21 04:11:39;;;;;;;13.95;10.48;;;;;;;;;;5023736;28;20128;-70
2021/09/21 04:14:06;;;;;;;13.25;9.82;;;;;;;;;;5056627;28;20293;-70
2021/09/21 04:16:32;;;;;;;18.42;10.57;;;;;;;;;;5039975;28;20499;-70
2021/09/21 04:18:59;;;;;;;13.00;9.77;;;;;;;;;;5045163;28;20075;-70
2021/09/21 04:21:25;;;;;;;14.98;9.70;;;;;;;;;;5057033;28;20045;-70
2021/09/21 04:23:51;;;;;;;14.55;10.60;;;;;;;;;;5058620;28;20202;-70
2021/09/21 04:26:17;;;;;;;11.93;9.23;;;;;;;;;;5047699;28;20421;-70
2021/09/21 04:28:45;;;;;;;14.38;10.00;;;;;;;;;;5054671;28;20044;-70
2021/09/21 04:31:13;;;;;;;15.82;10.48;;;;;;;;;;5036808;28;20048;-70
2021/09/21 04:33:40;;;;;;;12.57;9.43;;;;;;;;;;5043316;28;20036;-70
2021/09/21 04:36:08;;;;;;;12.88;9.52;;;;;;;;;;5032920;28;20061;-70
2021/09/21 04:38:34;;;;;;;15.38;9.25;;;;;;;;;;5021665;28;20484;-70
2021/09/21 04:41:00;;;;;;;12.45;9.25;;;;;;;;;;5021805;28;20147;-70
2021/09/21 04:43:26;;;;;;;14.73;9.02;;;;;;;;;;5023846;28;20123;-70
2021/09/21 04:45:53;;;;;;;16.02;10.07;;;;;;;;;;5024100;28;20136;-70
2021/09/21 04:48:19;;;;;;;15.07;10.02;;;;;;;;;;5021678;28;20055;-70
2021/09/21 04:50:45;;;;;;;13.88;9.48;;;;;;;;;;5040800;28;20052;-71
2021/09/21 04:53:12;;;;;;;15.68;9.82;;;;;;;;;;5040810;28;20362;-71
2021/09/21 04:55:38;;;;;;;15.15;9.98;;;;;;;;;;5038227;28;20537;-70
2021/09/21 04:58:04;;;;;;;12.30;9.20;;;;;;;;;;5024175;28;20041;-70
2021/09/21 05:00:30;;;;;;;13.65;9.98;;;;;;;;;;5022303;28;20402;-70
2021/09/21 05:02:56;;;;;;;17.85;9.55;;;;;;;;;;5007687;28;20071;-71
2021/09/21 05:05:23;;;;;;;16.20;9.32;;;;;;;;;;5020960;28;20041;-70
2021/09/21 05:07:49;;;;;;;13.32;8.75;;;;;;;;;;5026316;28;20134;-70
2021/09/21 05:10:16;;;;;;;13.10;9.25;;;;;;;;;;5023361;28;20042;-70
2021/09/21 05:12:43;;;;;;;14.93;9.43;;;;;;;;;;5030954;28;20048;-72
2021/09/21 05:15:09;;;;;;;12.40;8.88;;;;;;;;;;5040182;28;20141;-71
2021/09/21 05:17:36;;;;;;;13.18;9.85;;;;;;;;;;5013388;28;20421;-72
2021/09/21 05:20:02;;;;;;;12.90;10.25;;;;;;;;;;5026317;28;20080;-71
2021/09/21 05:22:28;;;;;;;11.40;9.00;;;;;;;;;;5024169;28;20052;-70
2021/09/21 05:24:55;;;;;;;12.15;9.70;;;;;;;;;;5027404;28;20103;-70
2021/09/21 05:27:21;;;;;;;17.75;9.25;;;;;;;;;;5019657;28;20180;-71
2021/09/21 05:29:47;;;;;;;13.82;9.23;;;;;;;;;;5023072;28;20045;-69
2021/09/21 05:32:13;;;;;;;13.30;9.70;;;;;;;;;;5032506;28;20492;-69
2021/09/21 05:34:39;;;;;;;15.18;10.38;;;;;;;;;;5029581;28;20147;-68
2021/09/21 05:37:05;;;;;;;13.60;10.13;;;;;;;;;;5061195;28;20114;-69
2021/09/21 05:39:32;;;;;;;15.70;9.85;;;;;;;;;;5046603;28;20406;-69
2021/09/21 05:41:58;;;;;;;14.63;10.82;;;;;;;;;;5061052;28;20097;-68
2021/09/21 05:44:24;;;;;;;13.35;10.75;;;;;;;;;;5047883;28;20041;-69
2021/09/21 05:46:51;;;;;;;15.40;9.32;;;;;;;;;;5061915;28;20032;-69
2021/09/21 05:49:17;;;;;;;16.25;10.38;;;;;;;;;;5043005;28;20044;-68
2021/09/21 05:51:43;;;;;;;47.83;14.93;;;;;;;;;;5040992;28;20048;-68
2021/09/21 05:54:10;;;;;;;17.33;10.27;;;;;;;;;;5066864;28;20377;-68
2021/09/21 05:56:36;;;;;;;15.63;10.10;;;;;;;;;;5046571;28;20049;-68
2021/09/21 05:59:02;;;;;;;12.40;9.38;;;;;;;;;;5046864;28;20060;-68
2021/09/21 06:01:30;;;;;;;16.45;10.68;;;;;;;;;;5045840;28;20124;-68
2021/09/21 06:03:57;;;;;;;14.40;10.55;;;;;;;;;;5064048;28;20048;-68
2021/09/21 06:06:23;;;;;;;17.88;10.57;;;;;;;;;;5043174;28;20132;-68
2021/09/21 06:08:49;;;;;;;13.35;10.00;;;;;;;;;;5046611;28;20442;-68
2021/09/21 06:11:20;;;;;;;19.50;11.35;;;;;;;;;;5048527;28;20052;-68
2021/09/21 06:13:47;;;;;;;18.05;11.05;;;;;;;;;;5064308;28;20116;-68
2021/09/21 06:16:16;;;;;;;17.58;12.38;;;;;;;;;;5021852;28;20047;-68
2021/09/21 06:18:42;;;;;;;19.25;11.38;;;;;;;;;;5061729;28;20054;-68
2021/09/21 06:21:08;;;;;;;16.52;11.65;;;;;;;;;;5066119;28;20071;-68
2021/09/21 06:23:35;;;;;;;16.15;12.30;;;;;;;;;;5063399;28;20047;-68
2021/09/21 06:26:01;;;;;;;15.70;10.82;;;;;;;;;;5068521;28;20053;-68
2021/09/21 06:28:27;;;;;;;16.00;11.65;;;;;;;;;;5053990;28;20400;-68
2021/09/21 06:30:53;;;;;;;15.18;11.90;;;;;;;;;;5052112;28;20527;-68
2021/09/21 06:33:19;;;;;;;17.23;12.02;;;;;;;;;;5063001;28;20037;-68
2021/09/21 06:35:46;;;;;;;13.38;10.88;;;;;;;;;;5052843;28;20141;-68
2021/09/21 06:38:12;;;;;;;15.88;11.68;;;;;;;;;;5045421;28;20079;-68
2021/09/21 06:40:39;;;;;;;16.65;11.90;;;;;;;;;;5049157;28;20136;-68
2021/09/21 06:43:07;;;;;;;16.70;11.80;;;;;;;;;;5065671;28;20064;-68
2021/09/21 06:45:33;;;;;;;16.65;11.95;;;;;;;;;;5065605;28;20399;-68
2021/09/21 06:47:59;;;;;;;20.45;11.95;;;;;;;;;;5046392;28;20389;-68
2021/09/21 06:50:25;;;;;;;15.30;11.90;;;;;;;;;;5027918;28;20041;-68
2021/09/21 06:52:51;;;;;;;15.27;11.93;;;;;;;;;;5060625;28;20056;-68
2021/09/21 06:55:18;;;;;;;14.38;11.00;;;;;;;;;;5034076;28;20120;-68
2021/09/21 06:57:51;;;;;;;14.00;10.57;;;;;;;;;;5043784;28;20472;-68
2021/09/21 07:00:18;;;;;;;14.27;10.30;;;;;;;;;;5067422;28;20147;-68
2021/09/21 07:02:47;;;;;;;14.50;11.48;;;;;;;;;;5044723;28;20048;-69
2021/09/21 07:05:14;;;;;;;12.63;9.90;;;;;;;;;;5044179;28;20081;-68
2021/09/21 07:07:45;;;;;;;14.63;11.25;;;;;;;;;;5034730;28;20057;-68
2021/09/21 07:10:12;;;;;;;14.38;11.05;;;;;;;;;;5036731;28;20033;-68
2021/09/21 07:12:39;;;;;;;15.27;11.32;;;;;;;;;;5058011;28;20044;-68
2021/09/21 07:15:05;;;;;;;17.75;11.85;;;;;;;;;;5046299;28;20048;-68
2021/09/21 07:17:32;;;;;;;14.52;11.90;;;;;;;;;;5052804;28;20032;-68
2021/09/21 07:19:58;;;;;;;15.18;11.88;;;;;;;;;;5054374;28;20234;-68
2021/09/21 07:22:24;;;;;;;15.40;11.88;;;;;;;;;;5051641;28;20040;-68
2021/09/21 07:24:50;;;;;;;14.43;11.18;;;;;;;;;;5047734;28;20049;-68
2021/09/21 07:27:17;;;;;;;16.67;10.93;;;;;;;;;;5069376;28;20045;-68
2021/09/21 07:29:43;;;;;;;15.52;11.10;;;;;;;;;;5066430;28;20157;-69
2021/09/21 07:32:09;;;;;;;16.13;11.10;;;;;;;;;;5052351;28;20101;-68
2021/09/21 07:34:35;;;;;;;18.42;10.65;;;;;;;;;;5063838;28;20085;-69
2021/09/21 07:37:02;;;;;;;13.43;10.02;;;;;;;;;;5052929;28;20063;-69
2021/09/21 07:39:29;;;;;;;15.90;10.50;;;;;;;;;;5051778;28;20334;-68
2021/09/21 07:41:55;;;;;;;17.92;9.68;;;;;;;;;;5071114;28;20043;-68
2021/09/21 07:44:21;;;;;;;13.00;9.38;;;;;;;;;;5049758;28;20411;-69
2021/09/21 07:46:48;;;;;;;14.30;8.85;;;;;;;;;;5070116;28;20098;-68
2021/09/21 07:49:14;;;;;;;14.93;9.75;;;;;;;;;;5066376;28;20445;-68
2021/09/21 07:51:40;;;;;;;16.60;9.63;;;;;;;;;;5066488;28;20441;-69
2021/09/21 07:54:08;;;;;;;14.73;8.80;;;;;;;;;;5070798;28;20041;-68
2021/09/21 07:56:35;;;;;;;11.25;8.25;;;;;;;;;;5064419;28;20067;-69
2021/09/21 07:59:03;;;;;;;11.55;7.57;;;;;;;;;;5037910;28;20044;-68
2021/09/21 08:01:30;;;;;;;9.52;7.97;;;;;;;;;;5053115;28;20111;-69
2021/09/21 08:03:56;;;;;;;11.88;8.07;;;;;;;;;;5050536;28;20083;-69
2021/09/21 08:06:23;;;;;;;9.90;7.25;;;;;;;;;;5038989;28;20121;-69
2021/09/21 08:08:49;;;;;;;12.15;7.63;;;;;;;;;;5037564;28;21777;-69
2021/09/21 08:11:16;;;;;;;14.63;7.00;;;;;;;;;;5022086;28;20083;-69
2021/09/21 08:13:42;;;;;;;11.73;7.28;;;;;;;;;;5066868;28;20395;-69
2021/09/21 08:16:08;;;;;;;10.35;6.90;;;;;;;;;;5068643;28;20462;-69
2021/09/21 08:18:35;;;;;;;10.27;7.13;;;;;;;;;;5049948;28;20052;-69
2021/09/21 08:21:02;;;;;;;9.82;6.47;;;;;;;;;;5043593;28;20547;-69
2021/09/21 08:23:28;;;;;;;11.00;6.70;;;;;;;;;;5049328;28;20084;-69
2021/09/21 08:25:55;;;;;;;11.18;6.97;;;;;;;;;;5052119;28;20048;-69
2021/09/21 08:28:21;;;;;;;10.57;6.80;;;;;;;;;;5060598;28;20179;-69
2021/09/21 08:30:47;;;;;;;8.65;6.05;;;;;;;;;;5056364;28;20077;-69
2021/09/21 08:33:13;;;;;;;9.77;6.18;;;;;;;;;;5060797;28;20042;-73
2021/09/21 08:35:40;;;;;;;8.68;5.88;;;;;;;;;;5063491;28;20063;-68
2021/09/21 08:38:06;;;;;;;10.25;6.95;;;;;;;;;;5045575;28;20047;-68
2021/09/21 08:40:32;;;;;;;10.85;6.20;;;;;;;;;;5043032;28;20049;-68
2021/09/21 08:42:59;;;;;;;10.70;6.13;;;;;;;;;;5055914;28;20060;-68
2021/09/21 08:45:26;;;;;;;11.50;6.10;;;;;;;;;;5041672;28;20048;-68
2021/09/21 08:47:52;;;;;;;8.32;5.72;;;;;;;;;;5026327;28;20385;-68
2021/09/21 08:50:19;;;;;;;9.63;6.07;;;;;;;;;;5061658;28;20036;-68
2021/09/21 08:52:45;;;;;;;12.68;6.47;;;;;;;;;;5043510;28;20036;-68
2021/09/21 08:55:14;;;;;;;9.63;6.43;;;;;;;;;;5057765;28;20108;-68
2021/09/21 08:57:41;;;;;;;10.35;6.53;;;;;;;;;;5048870;28;20048;-68
2021/09/21 09:00:08;;;;;;;10.60;6.75;;;;;;;;;;5049477;28;20042;-68
2021/09/21 09:02:34;;;;;;;12.35;6.90;;;;;;;;;;5062965;28;20080;-68
2021/09/21 09:05:03;;;;;;;9.27;5.45;;;;;;;;;;5041250;28;20040;-68
2021/09/21 09:07:34;;;;;;;11.75;5.50;;;;;;;;;;5051006;28;20114;-68
2021/09/21 09:10:02;;;;;;;8.88;5.70;;;;;;;;;;5038679;28;20132;-68
2021/09/21 09:12:30;;;;;;;11.88;6.25;;;;;;;;;;5052320;28;20051;-68
2021/09/21 09:14:56;;;;;;;10.40;5.57;;;;;;;;;;5039450;28;20365;-68
2021/09/21 09:17:22;;;;;;;10.90;5.60;;;;;;;;;;5048039;28;20086;-68
2021/09/21 09:19:50;;;;;;;9.88;6.00;;;;;;;;;;5042340;28;20118;-68
2021/09/21 09:22:18;;;;;;;10.52;5.53;;;;;;;;;;5040277;28;20132;-68
2021/09/21 09:24:46;;;;;;;9.05;5.88;;;;;;;;;;5039512;28;20036;-68
2021/09/21 09:27:12;;;;;;;8.85;5.70;;;;;;;;;;5040980;28;20415;-68
2021/09/21 09:29:51;;;;;;;10.68;5.55;;;;;;;;;;5046890;28;20040;-69
2021/09/21 09:32:17;;;;;;;10.10;5.82;;;;;;;;;;5040045;28;20048;-68
2021/09/21 09:34:44;;;;;;;7.70;5.18;;;;;;;;;;5042322;28;20049;-69
2021/09/21 09:37:10;;;;;;;10.23;5.97;;;;;;;;;;5056356;28;20072;-69
2021/09/21 09:39:37;;;;;;;9.20;5.45;;;;;;;;;;5041096;28;20155;-68
2021/09/21 09:42:03;;;;;;;9.90;5.50;;;;;;;;;;5061451;28;20532;-69
2021/09/21 09:44:30;;;;;;;7.20;4.63;;;;;;;;;;5039223;28;20037;-69
2021/09/21 09:47:02;;;;;;;10.75;5.30;;;;;;;;;;5042256;28;20068;-68
2021/09/21 09:49:33;;;;;;;8.60;4.78;;;;;;;;;;5051602;28;20156;-69
2021/09/21 09:52:04;;;;;;;7.35;4.53;;;;;;;;;;5043230;28;20052;-69
2021/09/21 09:54:31;;;;;;;10.70;4.53;;;;;;;;;;5060059;28;20131;-69
2021/09/21 09:56:57;;;;;;;9.57;4.43;;;;;;;;;;5044129;28;20490;-68
2021/09/21 09:59:26;;;;;;;7.30;4.53;;;;;;;;;;5046116;28;20080;-69
2021/09/21 10:01:52;;;;;;;8.43;5.00;;;;;;;;;;5046071;28;20480;-68
2021/09/21 10:04:18;;;;;;;11.00;4.60;;;;;;;;;;5049344;28;20064;-69
2021/09/21 10:06:44;;;;;;;8.63;4.82;;;;;;;;;;5047910;28;20056;-69
2021/09/21 10:09:11;;;;;;;7.32;4.18;;;;;;;;;;5051571;28;20571;-69
2021/09/21 10:11:38;;;;;;;8.98;5.10;;;;;;;;;;5047732;28;20044;-69
2021/09/21 10:14:06;;;;;;;7.40;4.53;;;;;;;;;;5055991;28;20037;-69
2021/09/21 10:16:32;;;;;;;11.52;5.28;;;;;;;;;;5058748;28;20037;-69
2021/09/21 10:18:59;;;;;;;12.07;4.93;;;;;;;;;;5045957;28;20521;-69
2021/09/21 10:21:29;;;;;;;9.90;4.82;;;;;;;;;;5049688;28;20067;-69
2021/09/21 10:23:59;;;;;;;8.15;4.50;;;;;;;;;;5061911;28;20049;-69
2021/09/21 10:26:26;;;;;;;11.15;4.85;;;;;;;;;;5044563;28;21131;-69
2021/09/21 10:28:52;;;;;;;10.70;4.78;;;;;;;;;;5050200;28;20356;-69
2021/09/21 10:31:19;;;;;;;9.70;4.68;;;;;;;;;;5062271;28;20175;-69
2021/09/21 10:33:46;;;;;;;10.32;5.20;;;;;;;;;;5042150;28;20114;-69
2021/09/21 10:36:17;;;;;;;10.68;5.53;;;;;;;;;;5047157;28;20078;-69
2021/09/21 10:38:54;;;;;;;7.88;4.72;;;;;;;;;;5056885;28;20032;-69
2021/09/21 10:41:20;;;;;;;7.88;4.60;;;;;;;;;;5040018;28;20052;-69
2021/09/21 10:43:57;;;;;;;8.32;5.10;;;;;;;;;;5042856;28;20484;-69
2021/09/21 10:46:23;;;;;;;8.00;4.97;;;;;;;;;;5040336;28;20041;-69
2021/09/21 10:48:49;;;;;;;10.27;5.13;;;;;;;;;;5045540;28;20040;-69
2021/09/21 10:51:16;;;;;;;6.75;4.35;;;;;;;;;;5047336;28;20076;-69
2021/09/21 10:53:42;;;;;;;8.35;5.32;;;;;;;;;;5044446;28;20047;-69
2021/09/21 10:56:11;;;;;;;8.43;4.95;;;;;;;;;;5057660;28;20562;-69
2021/09/21 10:58:38;;;;;;;7.15;5.10;;;;;;;;;;5044815;28;20558;-68
2021/09/21 11:01:04;;;;;;;11.73;5.55;;;;;;;;;;5062346;28;20095;-69
2021/09/21 11:03:31;;;;;;;10.40;5.68;;;;;;;;;;5056317;28;20051;-68
2021/09/21 11:05:59;;;;;;;9.52;5.80;;;;;;;;;;5045234;28;20116;-68
2021/09/21 11:08:29;;;;;;;9.10;5.65;;;;;;;;;;5047037;28;20040;-68
2021/09/21 11:10:59;;;;;;;9.30;6.00;;;;;;;;;;5051081;28;20115;-73
2021/09/21 11:13:26;;;;;;;10.27;5.78;;;;;;;;;;5047666;28;20461;-68
2021/09/21 11:15:52;;;;;;;12.48;6.22;;;;;;;;;;5043294;28;20040;-68
2021/09/21 11:18:19;;;;;;;9.20;6.05;;;;;;;;;;5046226;28;20127;-68
2021/09/21 11:20:48;;;;;;;9.52;5.88;;;;;;;;;;5052687;28;20080;-68
2021/09/21 11:23:15;;;;;;;8.98;5.97;;;;;;;;;;5044526;28;20044;-68
2021/09/21 11:25:42;;;;;;;12.00;6.13;;;;;;;;;;5050887;28;20451;-68
2021/09/21 11:28:08;;;;;;;12.27;6.63;;;;;;;;;;5041351;28;20459;-68
2021/09/21 11:30:34;;;;;;;10.15;6.47;;;;;;;;;;5067337;28;20097;-68
2021/09/21 11:33:18;;;;;;;12.07;6.80;;;;;;;;;;5066479;28;20543;-68
2021/09/21 11:35:46;;;;;;;11.27;6.35;;;;;;;;;;5070672;28;20078;-69
2021/09/21 11:38:13;;;;;;;10.00;7.25;;;;;;;;;;5043322;28;20135;-69
2021/09/21 11:40:42;;;;;;;10.18;6.43;;;;;;;;;;5046974;28;20048;-69
2021/09/21 11:43:09;;;;;;;12.18;7.05;;;;;;;;;;5050743;28;20036;-68
2021/09/21 11:45:35;;;;;;;11.32;6.80;;;;;;;;;;5046458;28;20041;-69
2021/09/21 11:48:02;;;;;;;8.38;5.90;;;;;;;;;;5062920;28;20467;-69
2021/09/21 11:50:29;;;;;;;10.18;5.75;;;;;;;;;;5052769;28;20090;-68
2021/09/21 11:52:57;;;;;;;13.48;6.57;;;;;;;;;;5037354;28;20484;-69
2021/09/21 11:55:25;;;;;;;14.38;6.45;;;;;;;;;;5068756;28;20044;-69
2021/09/21 11:57:51;;;;;;;12.90;6.78;;;;;;;;;;5050210;28;20101;-69
2021/09/21 12:00:24;;;;;;;11.32;6.82;;;;;;;;;;5040712;28;20488;-69
2021/09/21 12:02:52;;;;;;;9.75;7.18;;;;;;;;;;5063032;28;20040;-68
2021/09/21 12:05:19;;;;;;;14.77;7.03;;;;;;;;;;5055864;28;20131;-68
2021/09/21 12:07:45;;;;;;;10.23;6.57;;;;;;;;;;5039973;28;20051;-68
2021/09/21 12:10:11;;;;;;;10.50;5.97;;;;;;;;;;5064456;28;20068;-69
2021/09/21 12:12:38;;;;;;;11.52;5.80;;;;;;;;;;5044684;28;20032;-68
2021/09/21 12:15:04;;;;;;;13.85;6.63;;;;;;;;;;5070346;28;20499;-69
2021/09/21 12:17:30;;;;;;;10.27;6.25;;;;;;;;;;5060963;28;20049;-68
2021/09/21 12:19:58;;;;;;;10.73;6.15;;;;;;;;;;5069572;28;20032;-69
2021/09/21 12:22:24;;;;;;;22.48;7.18;;;;;;;;;;5050346;28;20067;-69
2021/09/21 12:24:51;;;;;;;9.65;6.10;;;;;;;;;;5041086;28;20044;-69
2021/09/21 12:27:19;;;;;;;9.77;6.47;;;;;;;;;;5060613;28;20048;-69
2021/09/21 12:29:46;;;;;;;11.70;7.45;;;;;;;;;;5056820;28;20193;-69
2021/09/21 12:32:15;;;;;;;9.32;6.32;;;;;;;;;;5056080;28;20095;-68
2021/09/21 12:34:43;;;;;;;14.75;6.45;;;;;;;;;;5055268;28;20040;-69
2021/09/21 12:37:09;;;;;;;9.30;7.05;;;;;;;;;;5045281;28;20165;-69
2021/09/21 12:39:35;;;;;;;11.43;7.38;;;;;;;;;;5037540;28;20123;-69
2021/09/21 12:42:02;;;;;;;9.93;6.32;;;;;;;;;;5034908;28;20053;-68
2021/09/21 12:44:29;;;;;;;10.45;6.78;;;;;;;;;;5040583;28;20472;-69
2021/09/21 12:46:57;;;;;;;10.27;6.95;;;;;;;;;;5041054;28;20055;-69
2021/09/21 12:49:25;;;;;;;10.60;6.30;;;;;;;;;;5060331;28;20043;-68
2021/09/21 12:51:55;;;;;;;12.23;6.05;;;;;;;;;;5040359;28;20053;-68
2021/09/21 12:54:21;;;;;;;10.70;6.45;;;;;;;;;;5041462;28;20055;-68
2021/09/21 12:56:50;;;;;;;12.48;6.43;;;;;;;;;;5038405;28;20472;-68
2021/09/21 12:59:19;;;;;;;10.77;6.65;;;;;;;;;;5057377;28;20119;-68
2021/09/21 13:01:47;;;;;;;7.78;5.85;;;;;;;;;;5046917;28;20082;-68
2021/09/21 13:04:13;;;;;;;9.82;6.60;;;;;;;;;;5038865;28;20163;-68
2021/09/21 13:06:42;;;;;;;9.50;6.65;;;;;;;;;;5060331;28;20060;-69
2021/09/21 13:09:08;;;;;;;10.05;6.18;;;;;;;;;;5052136;28;20094;-69
2021/09/21 13:11:35;;;;;;;9.70;6.55;;;;;;;;;;5044981;28;20087;-68
2021/09/21 13:14:01;;;;;;;6.80;4.55;;;;;;;;;;5045837;28;20111;-67
2021/09/21 13:16:28;;;;;;;8.77;4.90;;;;;;;;;;5044436;28;20053;-67
2021/09/21 13:18:54;;;;;;;10.52;5.53;;;;;;;;;;5045987;28;20065;-66
2021/09/21 13:21:21;;;;;;;7.28;5.07;;;;;;;;;;5064759;28;20037;-68
2021/09/21 13:23:47;;;;;;;11.15;5.05;;;;;;;;;;5066971;28;20511;-69
2021/09/21 13:26:15;;;;;;;7.45;4.72;;;;;;;;;;5041313;28;20432;-69
2021/09/21 13:28:41;;;;;;;9.55;5.30;;;;;;;;;;5059501;28;20051;-68
2021/09/21 13:31:08;;;;;;;12.20;5.20;;;;;;;;;;5047574;28;20353;-69
2021/09/21 13:33:34;;;;;;;11.00;4.93;;;;;;;;;;5044734;28;20045;-69
2021/09/21 13:36:01;;;;;;;12.20;5.40;;;;;;;;;;5053560;28;20045;-69
2021/09/21 13:38:27;;;;;;;7.72;4.38;;;;;;;;;;5048247;28;20057;-68
2021/09/21 13:40:53;;;;;;;7.32;4.28;;;;;;;;;;5038400;28;20045;-75
2021/09/21 13:43:19;;;;;;;6.82;4.68;;;;;;;;;;5059625;28;20076;-69
2021/09/21 13:45:46;;;;;;;8.77;4.50;;;;;;;;;;5063127;28;20052;-69
2021/09/21 13:48:12;;;;;;;9.50;4.88;;;;;;;;;;5041128;28;20068;-69
2021/09/21 13:50:38;;;;;;;8.43;4.75;;;;;;;;;;5064684;28;20032;-69
2021/09/21 13:53:05;;;;;;;6.50;5.13;;;;;;;;;;5051941;28;20048;-68
2021/09/21 13:55:31;;;;;;;7.70;5.18;;;;;;;;;;5058299;28;20211;-69
2021/09/21 13:57:57;;;;;;;7.22;4.40;;;;;;;;;;5051917;28;20028;-69
2021/09/21 14:00:25;;;;;;;9.43;4.40;;;;;;;;;;5043825;28;20459;-69
2021/09/21 14:02:51;;;;;;;7.43;4.53;;;;;;;;;;5041639;28;20556;-69
2021/09/21 14:05:19;;;;;;;8.02;5.13;;;;;;;;;;5041371;28;20106;-69
2021/09/21 14:07:46;;;;;;;7.47;5.03;;;;;;;;;;5044246;28;20052;-69
2021/09/21 14:10:13;;;;;;;13.88;5.88;;;;;;;;;;5060840;28;20036;-69
2021/09/21 14:12:39;;;;;;;8.82;4.95;;;;;;;;;;5042094;28;20037;-69
2021/09/21 14:15:07;;;;;;;10.25;5.50;;;;;;;;;;5062838;28;20045;-69
2021/09/21 14:17:34;;;;;;;9.57;4.93;;;;;;;;;;5044104;28;20067;-69
2021/09/21 14:20:01;;;;;;;9.95;5.70;;;;;;;;;;5048458;28;20055;-69
2021/09/21 14:22:27;;;;;;;9.93;5.35;;;;;;;;;;5063034;28;20132;-69
2021/09/21 14:24:55;;;;;;;7.90;5.00;;;;;;;;;;5044487;28;20408;-69
2021/09/21 14:27:22;;;;;;;10.00;5.00;;;;;;;;;;5054328;28;20493;-69
2021/09/21 14:29:48;;;;;;;6.88;4.60;;;;;;;;;;5039669;28;20037;-69
2021/09/21 14:32:15;;;;;;;12.25;4.97;;;;;;;;;;5039603;28;20423;-69
2021/09/21 14:34:41;;;;;;;10.98;4.85;;;;;;;;;;5056246;28;20119;-69
2021/09/21 14:37:07;;;;;;;11.75;6.03;;;;;;;;;;5038820;28;20052;-69